createdAt,value
2018-05-27T00:00:05.189Z,1016.95
2018-05-27T00:00:45.731Z,1016.95
2018-05-27T00:01:26.338Z,1016.99
2018-05-27T00:02:06.874Z,1016.99
2018-05-27T00:02:47.504Z,1016.98
2018-05-27T00:03:28.058Z,1016.99
2018-05-27T00:04:08.619Z,1017.04
2018-05-27T00:04:49.178Z,1017.04
2018-05-27T00:05:29.746Z,1017.02
2018-05-27T00:06:10.299Z,1017.05
2018-05-27T00:06:50.879Z,1017.06
2018-05-27T00:07:31.416Z,1017.06
2018-05-27T00:08:11.962Z,1017.06
2018-05-27T00:08:52.509Z,1017.01
2018-05-27T00:09:33.067Z,1017
2018-05-27T00:10:13.998Z,1016.97
2018-05-27T00:10:55.010Z,1016.96
2018-05-27T00:11:35.567Z,1016.94
2018-05-27T00:12:16.123Z,1016.94
2018-05-27T00:12:56.878Z,1016.92
2018-05-27T00:13:37.818Z,1016.92
2018-05-27T00:14:18.388Z,1016.93
2018-05-27T00:14:58.955Z,1016.88
2018-05-27T00:15:39.505Z,1016.86
2018-05-27T00:16:20.071Z,1016.9
2018-05-27T00:17:00.641Z,1016.88
2018-05-27T00:17:41.201Z,1016.88
2018-05-27T00:18:21.742Z,1016.88
2018-05-27T00:19:02.362Z,1016.89
2018-05-27T00:19:42.908Z,1016.89
2018-05-27T00:20:23.453Z,1016.91
2018-05-27T00:21:04.011Z,1016.92
2018-05-27T00:21:44.635Z,1016.89
2018-05-27T00:22:25.186Z,1016.89
2018-05-27T00:23:05.742Z,1016.89
2018-05-27T00:23:46.286Z,1016.89
2018-05-27T00:24:26.848Z,1016.85
2018-05-27T00:25:07.415Z,1016.93
2018-05-27T00:25:47.950Z,1016.9
2018-05-27T00:26:28.571Z,1016.89
2018-05-27T00:27:09.128Z,1016.92
2018-05-27T00:27:49.696Z,1016.88
2018-05-27T00:28:30.256Z,1016.92
2018-05-27T00:29:10.798Z,1016.89
2018-05-27T00:29:51.343Z,1016.87
2018-05-27T00:30:31.888Z,1016.9
2018-05-27T00:31:12.453Z,1016.9
2018-05-27T00:31:53.012Z,1016.86
2018-05-27T00:32:33.572Z,1016.85
2018-05-27T00:33:14.109Z,1016.88
2018-05-27T00:33:54.660Z,1016.85
2018-05-27T00:34:35.204Z,1016.85
2018-05-27T00:35:15.767Z,1016.84
2018-05-27T00:35:56.300Z,1016.86
2018-05-27T00:36:36.872Z,1016.83
2018-05-27T00:37:17.452Z,1016.86
2018-05-27T00:37:58.015Z,1016.87
2018-05-27T00:38:38.588Z,1016.84
2018-05-27T00:39:19.139Z,1016.83
2018-05-27T00:39:59.683Z,1016.9
2018-05-27T00:40:40.218Z,1016.89
2018-05-27T00:41:20.785Z,1016.9
2018-05-27T00:42:01.325Z,1016.88
2018-05-27T00:42:41.876Z,1016.88
2018-05-27T00:43:22.432Z,1016.91
2018-05-27T00:44:02.974Z,1016.85
2018-05-27T00:44:43.554Z,1016.91
2018-05-27T00:45:24.110Z,1016.89
2018-05-27T00:46:04.670Z,1016.89
2018-05-27T00:46:45.248Z,1016.88
2018-05-27T00:47:25.815Z,1016.85
2018-05-27T00:48:06.368Z,1016.86
2018-05-27T00:48:46.903Z,1016.87
2018-05-27T00:49:27.454Z,1016.81
2018-05-27T00:50:07.979Z,1016.91
2018-05-27T00:50:48.526Z,1016.83
2018-05-27T00:51:29.645Z,1016.88
2018-05-27T00:52:10.189Z,1016.88
2018-05-27T00:52:50.766Z,1016.84
2018-05-27T00:53:31.331Z,1016.86
2018-05-27T00:54:11.893Z,1016.85
2018-05-27T00:54:52.567Z,1016.84
2018-05-27T00:55:33.054Z,1016.88
2018-05-27T00:56:13.589Z,1016.89
2018-05-27T00:56:54.140Z,1016.89
2018-05-27T00:57:34.712Z,1016.89
2018-05-27T00:58:15.299Z,1016.91
2018-05-27T00:58:55.851Z,1016.87
2018-05-27T00:59:36.390Z,1016.9
2018-05-27T01:00:16.930Z,1016.87
2018-05-27T01:00:57.477Z,1016.91
2018-05-27T01:01:38.048Z,1016.88
2018-05-27T01:02:18.592Z,1016.89
2018-05-27T01:02:59.146Z,1016.89
2018-05-27T01:03:39.717Z,1016.92
2018-05-27T01:04:20.320Z,1016.89
2018-05-27T01:05:00.868Z,1016.92
2018-05-27T01:05:41.424Z,1016.89
2018-05-27T01:06:22.005Z,1016.91
2018-05-27T01:07:02.558Z,1016.92
2018-05-27T01:07:43.124Z,1016.89
2018-05-27T01:08:23.687Z,1016.91
2018-05-27T01:09:04.327Z,1016.9
2018-05-27T01:09:44.889Z,1016.93
2018-05-27T01:10:25.433Z,1016.88
2018-05-27T01:11:05.978Z,1016.94
2018-05-27T01:11:46.565Z,1016.89
2018-05-27T01:12:27.105Z,1016.86
2018-05-27T01:13:07.643Z,1016.84
2018-05-27T01:13:48.191Z,1016.88
2018-05-27T01:14:28.797Z,1016.83
2018-05-27T01:15:09.338Z,1016.84
2018-05-27T01:15:49.922Z,1016.82
2018-05-27T01:16:30.470Z,1016.83
2018-05-27T01:17:11.035Z,1016.83
2018-05-27T01:17:51.582Z,1016.82
2018-05-27T01:18:32.150Z,1016.77
2018-05-27T01:19:12.713Z,1016.77
2018-05-27T01:19:53.277Z,1016.79
2018-05-27T01:20:33.811Z,1016.79
2018-05-27T01:21:14.388Z,1016.78
2018-05-27T01:21:54.944Z,1016.77
2018-05-27T01:22:35.493Z,1016.7
2018-05-27T01:23:16.089Z,1016.77
2018-05-27T01:23:56.651Z,1016.74
2018-05-27T01:24:37.196Z,1016.72
2018-05-27T01:25:17.754Z,1016.7
2018-05-27T01:25:58.309Z,1016.75
2018-05-27T01:26:38.886Z,1016.71
2018-05-27T01:27:19.441Z,1016.75
2018-05-27T01:28:00.008Z,1016.73
2018-05-27T01:28:40.543Z,1016.75
2018-05-27T01:29:21.112Z,1016.72
2018-05-27T01:30:01.672Z,1016.72
2018-05-27T01:30:42.211Z,1016.76
2018-05-27T01:31:22.769Z,1016.74
2018-05-27T01:32:03.342Z,1016.78
2018-05-27T01:32:43.896Z,1016.76
2018-05-27T01:33:24.500Z,1016.76
2018-05-27T01:34:05.050Z,1016.8
2018-05-27T01:34:45.606Z,1016.82
2018-05-27T01:35:26.146Z,1016.78
2018-05-27T01:36:06.690Z,1016.75
2018-05-27T01:36:47.256Z,1016.79
2018-05-27T01:37:27.798Z,1016.78
2018-05-27T01:38:08.371Z,1016.76
2018-05-27T01:38:48.946Z,1016.78
2018-05-27T01:39:29.509Z,1016.82
2018-05-27T01:40:10.057Z,1016.78
2018-05-27T01:40:50.604Z,1016.73
2018-05-27T01:41:31.159Z,1016.76
2018-05-27T01:42:11.721Z,1016.73
2018-05-27T01:42:52.308Z,1016.69
2018-05-27T01:43:32.894Z,1016.72
2018-05-27T01:44:13.479Z,1016.71
2018-05-27T01:44:54.015Z,1016.68
2018-05-27T01:45:34.596Z,1016.66
2018-05-27T01:46:15.195Z,1016.7
2018-05-27T01:46:55.763Z,1016.7
2018-05-27T01:47:36.311Z,1016.66
2018-05-27T01:48:16.869Z,1016.68
2018-05-27T01:48:57.422Z,1016.67
2018-05-27T01:49:37.975Z,1016.63
2018-05-27T01:50:18.518Z,1016.65
2018-05-27T01:50:59.066Z,1016.67
2018-05-27T01:51:39.623Z,1016.67
2018-05-27T01:52:20.171Z,1016.62
2018-05-27T01:53:00.738Z,1016.67
2018-05-27T01:53:41.308Z,1016.6
2018-05-27T01:54:21.882Z,1016.6
2018-05-27T01:55:02.428Z,1016.58
2018-05-27T01:55:42.952Z,1016.61
2018-05-27T01:56:23.539Z,1016.59
2018-05-27T01:57:04.113Z,1016.62
2018-05-27T01:57:44.678Z,1016.6
2018-05-27T01:58:25.307Z,1016.61
2018-05-27T01:59:05.905Z,1016.65
2018-05-27T01:59:46.480Z,1016.58
2018-05-27T02:00:27.051Z,1016.6
2018-05-27T02:01:07.610Z,1016.59
2018-05-27T02:01:48.188Z,1016.62
2018-05-27T02:02:28.737Z,1016.61
2018-05-27T02:03:09.279Z,1016.6
2018-05-27T02:03:49.828Z,1016.65
2018-05-27T02:04:30.373Z,1016.63
2018-05-27T02:05:10.946Z,1016.6
2018-05-27T02:05:51.488Z,1016.61
2018-05-27T02:06:32.068Z,1016.61
2018-05-27T02:07:12.591Z,1016.6
2018-05-27T02:07:53.161Z,1016.6
2018-05-27T02:08:33.705Z,1016.55
2018-05-27T02:09:14.230Z,1016.58
2018-05-27T02:09:54.792Z,1016.51
2018-05-27T02:10:35.330Z,1016.53
2018-05-27T02:11:15.916Z,1016.53
2018-05-27T02:11:56.478Z,1016.49
2018-05-27T02:12:37.021Z,1016.52
2018-05-27T02:13:17.590Z,1016.51
2018-05-27T02:13:58.137Z,1016.51
2018-05-27T02:14:38.706Z,1016.52
2018-05-27T02:15:19.275Z,1016.5
2018-05-27T02:15:59.820Z,1016.53
2018-05-27T02:16:40.400Z,1016.53
2018-05-27T02:17:20.982Z,1016.56
2018-05-27T02:18:01.559Z,1016.54
2018-05-27T02:18:42.136Z,1016.52
2018-05-27T02:19:22.700Z,1016.54
2018-05-27T02:20:03.263Z,1016.52
2018-05-27T02:20:43.814Z,1016.52
2018-05-27T02:21:24.378Z,1016.57
2018-05-27T02:22:04.939Z,1016.53
2018-05-27T02:22:45.521Z,1016.51
2018-05-27T02:23:26.064Z,1016.54
2018-05-27T02:24:06.648Z,1016.54
2018-05-27T02:24:47.214Z,1016.53
2018-05-27T02:25:27.784Z,1016.52
2018-05-27T02:26:08.344Z,1016.5
2018-05-27T02:26:48.910Z,1016.54
2018-05-27T02:27:29.514Z,1016.54
2018-05-27T02:28:10.090Z,1016.5
2018-05-27T02:28:50.652Z,1016.48
2018-05-27T02:29:31.217Z,1016.51
2018-05-27T02:30:11.768Z,1016.48
2018-05-27T02:30:52.329Z,1016.49
2018-05-27T02:31:32.908Z,1016.44
2018-05-27T02:32:13.450Z,1016.43
2018-05-27T02:32:54.052Z,1016.47
2018-05-27T02:33:34.584Z,1016.42
2018-05-27T02:34:15.193Z,1016.45
2018-05-27T02:34:55.767Z,1016.42
2018-05-27T02:35:36.337Z,1016.42
2018-05-27T02:36:16.874Z,1016.41
2018-05-27T02:36:57.431Z,1016.4
2018-05-27T02:37:37.986Z,1016.4
2018-05-27T02:38:18.524Z,1016.38
2018-05-27T02:38:59.096Z,1016.39
2018-05-27T02:39:39.693Z,1016.41
2018-05-27T02:40:20.255Z,1016.38
2018-05-27T02:41:00.849Z,1016.37
2018-05-27T02:41:41.397Z,1016.38
2018-05-27T02:42:21.961Z,1016.35
2018-05-27T02:43:02.498Z,1016.36
2018-05-27T02:43:43.058Z,1016.34
2018-05-27T02:44:23.618Z,1016.34
2018-05-27T02:45:04.202Z,1016.32
2018-05-27T02:45:44.763Z,1016.31
2018-05-27T02:46:25.310Z,1016.33
2018-05-27T02:47:05.863Z,1016.33
2018-05-27T02:47:46.431Z,1016.34
2018-05-27T02:48:27.003Z,1016.35
2018-05-27T02:49:07.559Z,1016.36
2018-05-27T02:49:48.125Z,1016.33
2018-05-27T02:50:28.748Z,1016.38
2018-05-27T02:51:09.315Z,1016.39
2018-05-27T02:51:49.877Z,1016.37
2018-05-27T02:52:30.433Z,1016.42
2018-05-27T02:53:10.995Z,1016.38
2018-05-27T02:53:51.555Z,1016.4
2018-05-27T02:54:32.129Z,1016.39
2018-05-27T02:55:12.706Z,1016.38
2018-05-27T02:55:53.280Z,1016.38
2018-05-27T02:56:33.820Z,1016.36
2018-05-27T02:57:14.388Z,1016.39
2018-05-27T02:57:54.966Z,1016.4
2018-05-27T02:58:35.547Z,1016.37
2018-05-27T02:59:16.113Z,1016.39
2018-05-27T02:59:56.673Z,1016.39
2018-05-27T03:00:37.259Z,1016.38
2018-05-27T03:01:17.843Z,1016.37
2018-05-27T03:01:58.410Z,1016.43
2018-05-27T03:02:38.954Z,1016.39
2018-05-27T03:03:19.540Z,1016.37
2018-05-27T03:04:00.097Z,1016.35
2018-05-27T03:04:40.657Z,1016.35
2018-05-27T03:05:21.207Z,1016.39
2018-05-27T03:06:01.897Z,1016.36
2018-05-27T03:06:42.336Z,1016.39
2018-05-27T03:07:22.882Z,1016.37
2018-05-27T03:08:03.443Z,1016.41
2018-05-27T03:08:43.995Z,1016.35
2018-05-27T03:09:24.559Z,1016.37
2018-05-27T03:10:05.086Z,1016.38
2018-05-27T03:10:45.675Z,1016.39
2018-05-27T03:11:26.260Z,1016.35
2018-05-27T03:12:06.802Z,1016.36
2018-05-27T03:12:47.336Z,1016.39
2018-05-27T03:13:27.889Z,1016.4
2018-05-27T03:14:08.450Z,1016.43
2018-05-27T03:14:49.018Z,1016.42
2018-05-27T03:15:29.561Z,1016.4
2018-05-27T03:16:10.135Z,1016.44
2018-05-27T03:16:50.728Z,1016.4
2018-05-27T03:17:31.229Z,1016.45
2018-05-27T03:18:11.792Z,1016.41
2018-05-27T03:18:52.367Z,1016.46
2018-05-27T03:19:32.912Z,1016.44
2018-05-27T03:20:13.472Z,1016.46
2018-05-27T03:20:54.066Z,1016.43
2018-05-27T03:21:34.592Z,1016.41
2018-05-27T03:22:15.178Z,1016.38
2018-05-27T03:22:55.721Z,1016.44
2018-05-27T03:23:36.297Z,1016.43
2018-05-27T03:24:16.863Z,1016.45
2018-05-27T03:24:57.546Z,1016.4
2018-05-27T03:25:38.073Z,1016.43
2018-05-27T03:26:18.673Z,1016.42
2018-05-27T03:26:59.214Z,1016.39
2018-05-27T03:27:39.808Z,1016.46
2018-05-27T03:28:20.397Z,1016.42
2018-05-27T03:29:00.933Z,1016.41
2018-05-27T03:29:41.498Z,1016.41
2018-05-27T03:30:22.105Z,1016.4
2018-05-27T03:31:02.663Z,1016.4
2018-05-27T03:31:43.230Z,1016.34
2018-05-27T03:32:23.776Z,1016.37
2018-05-27T03:33:04.345Z,1016.35
2018-05-27T03:33:44.913Z,1016.34
2018-05-27T03:34:25.484Z,1016.35
2018-05-27T03:35:06.052Z,1016.39
2018-05-27T03:35:46.627Z,1016.4
2018-05-27T03:36:27.189Z,1016.32
2018-05-27T03:37:07.747Z,1016.32
2018-05-27T03:37:48.356Z,1016.35
2018-05-27T03:38:28.908Z,1016.34
2018-05-27T03:39:09.486Z,1016.35
2018-05-27T03:39:50.041Z,1016.35
2018-05-27T03:40:30.605Z,1016.35
2018-05-27T03:41:11.165Z,1016.35
2018-05-27T03:41:51.733Z,1016.37
2018-05-27T03:42:32.337Z,1016.37
2018-05-27T03:43:12.913Z,1016.35
2018-05-27T03:43:53.530Z,1016.34
2018-05-27T03:44:34.091Z,1016.36
2018-05-27T03:45:14.690Z,1016.36
2018-05-27T03:45:55.247Z,1016.32
2018-05-27T03:46:35.819Z,1016.37
2018-05-27T03:47:16.403Z,1016.34
2018-05-27T03:47:56.966Z,1016.35
2018-05-27T03:48:37.548Z,1016.38
2018-05-27T03:49:18.109Z,1016.37
2018-05-27T03:49:58.668Z,1016.42
2018-05-27T03:50:39.252Z,1016.4
2018-05-27T03:51:19.813Z,1016.42
2018-05-27T03:52:00.394Z,1016.4
2018-05-27T03:52:40.960Z,1016.41
2018-05-27T03:53:21.519Z,1016.41
2018-05-27T03:54:02.076Z,1016.43
2018-05-27T03:54:42.652Z,1016.41
2018-05-27T03:55:23.225Z,1016.41
2018-05-27T03:56:03.799Z,1016.39
2018-05-27T03:56:44.411Z,1016.42
2018-05-27T03:57:24.907Z,1016.39
2018-05-27T03:58:05.468Z,1016.44
2018-05-27T03:58:46.015Z,1016.41
2018-05-27T03:59:26.626Z,1016.4
2018-05-27T04:00:07.176Z,1016.4
2018-05-27T04:00:47.778Z,1016.38
2018-05-27T04:01:28.350Z,1016.4
2018-05-27T04:02:08.941Z,1016.37
2018-05-27T04:02:49.511Z,1016.39
2018-05-27T04:03:30.067Z,1016.36
2018-05-27T04:04:10.635Z,1016.34
2018-05-27T04:04:51.195Z,1016.34
2018-05-27T04:05:31.751Z,1016.34
2018-05-27T04:06:12.349Z,1016.35
2018-05-27T04:06:52.920Z,1016.4
2018-05-27T04:07:33.497Z,1016.37
2018-05-27T04:08:14.038Z,1016.38
2018-05-27T04:08:54.584Z,1016.34
2018-05-27T04:09:35.155Z,1016.38
2018-05-27T04:10:15.704Z,1016.42
2018-05-27T04:10:56.276Z,1016.39
2018-05-27T04:11:36.832Z,1016.37
2018-05-27T04:12:17.412Z,1016.4
2018-05-27T04:12:57.983Z,1016.36
2018-05-27T04:13:38.545Z,1016.38
2018-05-27T04:14:19.098Z,1016.41
2018-05-27T04:14:59.709Z,1016.36
2018-05-27T04:15:40.271Z,1016.39
2018-05-27T04:16:20.858Z,1016.43
2018-05-27T04:17:01.398Z,1016.39
2018-05-27T04:17:41.995Z,1016.42
2018-05-27T04:18:22.550Z,1016.38
2018-05-27T04:19:03.113Z,1016.33
2018-05-27T04:19:43.664Z,1016.36
2018-05-27T04:20:24.248Z,1016.35
2018-05-27T04:21:04.812Z,1016.35
2018-05-27T04:21:45.351Z,1016.3
2018-05-27T04:22:25.915Z,1016.3
2018-05-27T04:23:06.469Z,1016.28
2018-05-27T04:23:47.051Z,1016.29
2018-05-27T04:24:27.635Z,1016.25
2018-05-27T04:25:08.195Z,1016.25
2018-05-27T04:25:48.859Z,1016.21
2018-05-27T04:26:29.460Z,1016.25
2018-05-27T04:27:10.013Z,1016.26
2018-05-27T04:27:50.570Z,1016.25
2018-05-27T04:28:31.257Z,1016.29
2018-05-27T04:29:11.769Z,1016.27
2018-05-27T04:29:52.331Z,1016.32
2018-05-27T04:30:32.915Z,1016.33
2018-05-27T04:31:13.480Z,1016.34
2018-05-27T04:31:54.110Z,1016.34
2018-05-27T04:32:34.657Z,1016.33
2018-05-27T04:33:15.239Z,1016.38
2018-05-27T04:33:55.831Z,1016.36
2018-05-27T04:34:36.411Z,1016.37
2018-05-27T04:35:16.994Z,1016.31
2018-05-27T04:35:57.621Z,1016.37
2018-05-27T04:36:38.197Z,1016.37
2018-05-27T04:37:18.753Z,1016.35
2018-05-27T04:37:59.350Z,1016.37
2018-05-27T04:38:39.917Z,1016.37
2018-05-27T04:39:20.483Z,1016.37
2018-05-27T04:40:01.078Z,1016.38
2018-05-27T04:40:41.655Z,1016.4
2018-05-27T04:41:22.234Z,1016.37
2018-05-27T04:42:02.786Z,1016.38
2018-05-27T04:42:43.388Z,1016.38
2018-05-27T04:43:23.915Z,1016.42
2018-05-27T04:44:04.466Z,1016.39
2018-05-27T04:44:45.037Z,1016.38
2018-05-27T04:45:25.583Z,1016.38
2018-05-27T04:46:06.170Z,1016.39
2018-05-27T04:46:46.731Z,1016.41
2018-05-27T04:47:27.288Z,1016.41
2018-05-27T04:48:07.832Z,1016.42
2018-05-27T04:48:48.385Z,1016.43
2018-05-27T04:49:28.976Z,1016.42
2018-05-27T04:50:09.521Z,1016.43
2018-05-27T04:50:50.127Z,1016.45
2018-05-27T04:51:30.628Z,1016.43
2018-05-27T04:52:11.229Z,1016.43
2018-05-27T04:52:51.771Z,1016.44
2018-05-27T04:53:32.342Z,1016.43
2018-05-27T04:54:12.912Z,1016.38
2018-05-27T04:54:53.456Z,1016.44
2018-05-27T04:55:34.012Z,1016.41
2018-05-27T04:56:14.564Z,1016.46
2018-05-27T04:56:55.181Z,1016.45
2018-05-27T04:57:35.779Z,1016.46
2018-05-27T04:58:16.313Z,1016.47
2018-05-27T04:58:56.923Z,1016.47
2018-05-27T04:59:37.517Z,1016.46
2018-05-27T05:00:18.111Z,1016.48
2018-05-27T05:00:58.692Z,1016.51
2018-05-27T05:01:39.245Z,1016.51
2018-05-27T05:02:19.804Z,1016.5
2018-05-27T05:03:00.367Z,1016.52
2018-05-27T05:03:40.939Z,1016.53
2018-05-27T05:04:21.551Z,1016.55
2018-05-27T05:05:02.125Z,1016.5
2018-05-27T05:05:42.675Z,1016.56
2018-05-27T05:06:23.220Z,1016.59
2018-05-27T05:07:03.808Z,1016.59
2018-05-27T05:07:44.360Z,1016.59
2018-05-27T05:08:24.909Z,1016.59
2018-05-27T05:09:05.704Z,1016.64
2018-05-27T05:09:46.268Z,1016.6
2018-05-27T05:10:26.820Z,1016.62
2018-05-27T05:11:07.426Z,1016.6
2018-05-27T05:11:47.998Z,1016.62
2018-05-27T05:12:28.556Z,1016.62
2018-05-27T05:13:09.117Z,1016.62
2018-05-27T05:13:49.658Z,1016.6
2018-05-27T05:14:30.203Z,1016.6
2018-05-27T05:15:10.841Z,1016.59
2018-05-27T05:15:51.387Z,1016.56
2018-05-27T05:16:31.921Z,1016.6
2018-05-27T05:17:12.507Z,1016.6
2018-05-27T05:17:53.063Z,1016.58
2018-05-27T05:18:33.638Z,1016.6
2018-05-27T05:19:14.250Z,1016.59
2018-05-27T05:19:54.808Z,1016.54
2018-05-27T05:20:35.394Z,1016.58
2018-05-27T05:21:15.919Z,1016.55
2018-05-27T05:21:56.536Z,1016.58
2018-05-27T05:22:37.085Z,1016.55
2018-05-27T05:23:17.633Z,1016.54
2018-05-27T05:23:58.221Z,1016.53
2018-05-27T05:24:38.779Z,1016.53
2018-05-27T05:25:19.361Z,1016.55
2018-05-27T05:25:59.932Z,1016.54
2018-05-27T05:26:40.454Z,1016.6
2018-05-27T05:27:21.056Z,1016.67
2018-05-27T05:28:01.569Z,1016.66
2018-05-27T05:28:42.110Z,1016.63
2018-05-27T05:29:22.647Z,1016.68
2018-05-27T05:30:03.283Z,1016.72
2018-05-27T05:30:43.875Z,1016.66
2018-05-27T05:31:24.412Z,1016.74
2018-05-27T05:32:04.951Z,1016.75
2018-05-27T05:32:45.738Z,1016.81
2018-05-27T05:33:26.154Z,1016.84
2018-05-27T05:34:06.810Z,1016.8
2018-05-27T05:34:47.303Z,1016.84
2018-05-27T05:35:27.895Z,1016.83
2018-05-27T05:36:08.427Z,1016.81
2018-05-27T05:36:49.016Z,1016.91
2018-05-27T05:37:29.613Z,1016.91
2018-05-27T05:38:10.141Z,1017.01
2018-05-27T05:38:50.729Z,1017
2018-05-27T05:39:31.277Z,1017.07
2018-05-27T05:40:11.836Z,1017.09
2018-05-27T05:40:52.451Z,1017.16
2018-05-27T05:41:32.986Z,1017.08
2018-05-27T05:42:13.550Z,1017.15
2018-05-27T05:42:54.139Z,1017.2
2018-05-27T05:43:34.736Z,1017.25
2018-05-27T05:44:15.355Z,1017.25
2018-05-27T05:44:55.915Z,1017.29
2018-05-27T05:45:36.523Z,1017.36
2018-05-27T05:46:17.077Z,1017.36
2018-05-27T05:46:57.644Z,1017.41
2018-05-27T05:47:38.205Z,1017.45
2018-05-27T05:48:18.787Z,1017.48
2018-05-27T05:48:59.358Z,1017.52
2018-05-27T05:49:39.920Z,1017.55
2018-05-27T05:50:20.496Z,1017.63
2018-05-27T05:51:01.048Z,1017.74
2018-05-27T05:51:41.609Z,1017.78
2018-05-27T05:52:22.171Z,1017.84
2018-05-27T05:53:02.714Z,1017.8
2018-05-27T05:53:43.310Z,1017.77
2018-05-27T05:54:23.908Z,1017.88
2018-05-27T05:55:04.484Z,1018.04
2018-05-27T05:55:45.058Z,1018.15
2018-05-27T05:56:25.597Z,1018.22
2018-05-27T05:57:06.172Z,1018.22
2018-05-27T05:57:46.759Z,1018.21
2018-05-27T05:58:27.413Z,1018.24
2018-05-27T05:59:08.014Z,1018.26
2018-05-27T05:59:48.565Z,1018.2
2018-05-27T06:00:29.121Z,1018.13
2018-05-27T06:01:09.690Z,1018.21
2018-05-27T06:01:50.255Z,1018.2
2018-05-27T06:02:30.839Z,1018.19
2018-05-27T06:03:11.407Z,1018.16
2018-05-27T06:03:52.021Z,1018.03
2018-05-27T06:04:32.563Z,1017.89
2018-05-27T06:05:13.162Z,1017.81
2018-05-27T06:05:53.774Z,1017.79
2018-05-27T06:06:34.349Z,1017.74
2018-05-27T06:07:14.913Z,1017.76
2018-05-27T06:07:55.467Z,1017.8
2018-05-27T06:08:36.056Z,1017.81
2018-05-27T06:09:16.649Z,1017.7
2018-05-27T06:09:57.205Z,1017.6
2018-05-27T06:10:37.766Z,1017.53
2018-05-27T06:11:18.321Z,1017.5
2018-05-27T06:11:58.906Z,1017.43
2018-05-27T06:12:39.461Z,1017.49
2018-05-27T06:13:20.006Z,1017.61
2018-05-27T06:14:00.627Z,1017.79
2018-05-27T06:14:41.176Z,1017.94
2018-05-27T06:15:21.736Z,1017.95
2018-05-27T06:16:02.402Z,1017.81
2018-05-27T06:16:42.977Z,1017.77
2018-05-27T06:17:23.560Z,1017.83
2018-05-27T06:18:04.216Z,1017.79
2018-05-27T06:18:44.819Z,1017.79
2018-05-27T06:19:25.621Z,1017.8
2018-05-27T06:20:06.189Z,1017.75
2018-05-27T06:20:46.734Z,1017.76
2018-05-27T06:21:27.299Z,1017.73
2018-05-27T06:22:07.970Z,1017.73
2018-05-27T06:22:48.493Z,1017.68
2018-05-27T06:23:29.082Z,1017.8
2018-05-27T06:24:09.948Z,1017.78
2018-05-27T06:24:50.517Z,1017.85
2018-05-27T06:25:31.282Z,1017.8
2018-05-27T06:26:11.879Z,1017.82
2018-05-27T06:26:52.440Z,1017.85
2018-05-27T06:27:33.023Z,1017.98
2018-05-27T06:28:13.904Z,1018.09
2018-05-27T06:28:54.479Z,1018.14
2018-05-27T06:29:35.275Z,1018.06
2018-05-27T06:30:15.821Z,1018.02
2018-05-27T06:30:56.355Z,1017.94
2018-05-27T06:31:37.011Z,1018.01
2018-05-27T06:32:17.596Z,1018.05
2018-05-27T06:32:58.175Z,1018.12
2018-05-27T06:33:38.731Z,1018.19
2018-05-27T06:34:19.366Z,1018.16
2018-05-27T06:34:59.940Z,1018.14
2018-05-27T06:35:40.559Z,1018.11
2018-05-27T06:36:21.132Z,1018.05
2018-05-27T06:37:01.718Z,1017.94
2018-05-27T06:37:42.341Z,1017.74
2018-05-27T06:38:22.942Z,1017.57
2018-05-27T06:39:03.730Z,1017.39
2018-05-27T06:39:44.314Z,1017.36
2018-05-27T06:40:24.903Z,1017.3
2018-05-27T06:41:05.594Z,1017.29
2018-05-27T06:41:46.271Z,1017.28
2018-05-27T06:42:26.854Z,1017.22
2018-05-27T06:43:07.521Z,1017.23
2018-05-27T06:43:48.137Z,1017.26
2018-05-27T06:44:28.699Z,1017.28
2018-05-27T06:45:09.379Z,1017.29
2018-05-27T06:45:49.932Z,1017.3
2018-05-27T06:46:30.488Z,1017.34
2018-05-27T06:47:11.113Z,1017.37
2018-05-27T06:47:51.674Z,1017.51
2018-05-27T06:48:32.262Z,1017.69
2018-05-27T06:49:12.815Z,1017.75
2018-05-27T06:49:53.390Z,1017.58
2018-05-27T06:50:33.957Z,1017.42
2018-05-27T06:51:14.549Z,1017.34
2018-05-27T06:51:55.113Z,1017.32
2018-05-27T06:52:35.805Z,1017.3
2018-05-27T06:53:16.367Z,1017.3
2018-05-27T06:53:56.959Z,1017.32
2018-05-27T06:54:37.618Z,1017.31
2018-05-27T06:55:18.180Z,1017.31
2018-05-27T06:55:58.858Z,1017.29
2018-05-27T06:56:39.460Z,1017.29
2018-05-27T06:57:20.084Z,1017.35
2018-05-27T06:58:00.686Z,1017.29
2018-05-27T06:58:41.250Z,1017.31
2018-05-27T06:59:21.801Z,1017.35
2018-05-27T07:00:02.370Z,1017.36
2018-05-27T07:00:42.938Z,1017.3
2018-05-27T07:01:23.581Z,1017.3
2018-05-27T07:02:04.065Z,1017.33
2018-05-27T07:02:44.674Z,1017.34
2018-05-27T07:03:25.479Z,1017.31
2018-05-27T07:04:06.048Z,1017.3
2018-05-27T07:04:46.684Z,1017.3
2018-05-27T07:05:27.174Z,1017.39
2018-05-27T07:06:07.779Z,1017.41
2018-05-27T07:06:48.767Z,1017.42
2018-05-27T07:07:29.237Z,1017.42
2018-05-27T07:08:09.894Z,1017.36
2018-05-27T07:08:50.461Z,1017.29
2018-05-27T07:09:31.013Z,1017.27
2018-05-27T07:10:11.562Z,1017.23
2018-05-27T07:10:52.133Z,1017.27
2018-05-27T07:11:32.719Z,1017.24
2018-05-27T07:12:13.238Z,1017.2
2018-05-27T07:12:53.781Z,1017.21
2018-05-27T07:13:34.348Z,1017.21
2018-05-27T07:14:14.916Z,1017.23
2018-05-27T07:14:55.447Z,1017.19
2018-05-27T07:15:35.998Z,1017.2
2018-05-27T07:16:16.611Z,1017.2
2018-05-27T07:16:57.258Z,1017.22
2018-05-27T07:17:37.802Z,1017.2
2018-05-27T07:18:18.421Z,1017.21
2018-05-27T07:18:59.036Z,1017.23
2018-05-27T07:19:39.617Z,1017.28
2018-05-27T07:20:20.249Z,1017.24
2018-05-27T07:21:00.843Z,1017.27
2018-05-27T07:21:41.424Z,1017.23
2018-05-27T07:22:21.990Z,1017.27
2018-05-27T07:23:02.576Z,1017.3
2018-05-27T07:23:43.135Z,1017.28
2018-05-27T07:24:23.762Z,1017.27
2018-05-27T07:25:04.317Z,1017.25
2018-05-27T07:25:44.896Z,1017.23
2018-05-27T07:26:25.432Z,1017.26
2018-05-27T07:27:06.051Z,1017.2
2018-05-27T07:27:46.625Z,1017.21
2018-05-27T07:28:27.184Z,1017.24
2018-05-27T07:29:07.785Z,1017.18
2018-05-27T07:29:48.386Z,1017.17
2018-05-27T07:30:28.997Z,1017.19
2018-05-27T07:31:09.554Z,1017.19
2018-05-27T07:31:50.099Z,1017.16
2018-05-27T07:32:30.760Z,1017.2
2018-05-27T07:33:11.348Z,1017.18
2018-05-27T07:33:51.975Z,1017.18
2018-05-27T07:34:32.585Z,1017.17
2018-05-27T07:35:13.140Z,1017.18
2018-05-27T07:35:53.746Z,1017.18
2018-05-27T07:36:34.334Z,1017.18
2018-05-27T07:37:14.901Z,1017.22
2018-05-27T07:37:55.470Z,1017.19
2018-05-27T07:38:36.054Z,1017.23
2018-05-27T07:39:16.628Z,1017.21
2018-05-27T07:39:57.191Z,1017.22
2018-05-27T07:40:37.808Z,1017.26
2018-05-27T07:41:18.325Z,1017.23
2018-05-27T07:41:58.963Z,1017.23
2018-05-27T07:42:39.576Z,1017.26
2018-05-27T07:43:20.185Z,1017.23
2018-05-27T07:44:00.888Z,1017.25
2018-05-27T07:44:42.419Z,1017.26
2018-05-27T07:45:24.644Z,1017.27
2018-05-27T07:46:05.678Z,1017.29
2018-05-27T07:46:46.257Z,1017.25
2018-05-27T07:47:26.835Z,1017.26
2018-05-27T07:48:07.549Z,1017.24
2018-05-27T07:48:48.146Z,1017.22
2018-05-27T07:49:28.707Z,1017.24
2018-05-27T07:50:09.267Z,1017.25
2018-05-27T07:50:49.850Z,1017.21
2018-05-27T07:51:30.405Z,1017.24
2018-05-27T07:52:11.027Z,1017.21
2018-05-27T07:52:51.630Z,1017.22
2018-05-27T07:53:32.205Z,1017.22
2018-05-27T07:54:12.810Z,1017.17
2018-05-27T07:54:53.396Z,1017.15
2018-05-27T07:55:33.945Z,1017.14
2018-05-27T07:56:14.502Z,1017.12
2018-05-27T07:56:55.194Z,1017.12
2018-05-27T07:57:35.804Z,1017.11
2018-05-27T07:58:16.458Z,1017.13
2018-05-27T07:58:56.945Z,1017.09
2018-05-27T07:59:37.493Z,1017.06
2018-05-27T08:00:18.117Z,1017.08
2018-05-27T08:00:58.702Z,1017.09
2018-05-27T08:01:39.300Z,1017.04
2018-05-27T08:02:19.904Z,1017.04
2018-05-27T08:03:00.531Z,1017.02
2018-05-27T08:03:41.143Z,1017.04
2018-05-27T08:04:21.719Z,1017.02
2018-05-27T08:05:02.267Z,1017.03
2018-05-27T08:05:42.853Z,1017.01
2018-05-27T08:06:23.416Z,1017.01
2018-05-27T08:07:04.020Z,1017.06
2018-05-27T08:07:44.602Z,1017.06
2018-05-27T08:08:25.179Z,1017.04
2018-05-27T08:09:05.750Z,1017.01
2018-05-27T08:09:46.293Z,1017.05
2018-05-27T08:10:26.850Z,1017.02
2018-05-27T08:11:07.453Z,1017.05
2018-05-27T08:11:48.055Z,1017.03
2018-05-27T08:12:28.635Z,1017.04